Time;durP1;ratioP1;P1;durP2;ratioP2;P2;SDS_P1;SDS_P2;PMS_P1;PMS_P2;Temp;Humidity;BMP_temperature;BMP_pressure;BME280_temperature;BME280_humidity;BME280_pressure;Samples;Min_cycle;Max_cycle;Signal;HPM_P1;HPM_P2
2022/01/14 00:41:39;;;;;;;10.03;9.03;;;;;;;18.11;43.18;99189.00;6182329;23;20680;-90
2022/01/14 00:44:10;;;;;;;9.60;8.60;;;;;;;18.55;43.13;99270.09;6132919;23;20221;-90
2022/01/14 00:46:38;;;;;;;9.73;8.73;;;;;;;18.75;42.96;99291.06;6133738;23;20193;-90
2022/01/14 00:49:05;;;;;;;9.13;8.20;;;;;;;19.05;42.98;99344.09;6108521;23;20193;-90
2022/01/14 00:51:32;;;;;;;9.20;8.23;;;;;;;18.84;43.12;99306.97;6132762;23;20196;-89
2022/01/14 00:53:58;;;;;;;8.77;7.87;;;;;;;19.32;42.95;99401.19;6132251;23;20158;-89
2022/01/14 01:01:38;;;;;;;9.53;8.40;;;;;;;18.62;42.95;99279.94;6141040;23;20165;-90
2022/01/14 01:04:06;;;;;;;10.10;9.13;;;;;;;19.20;43.01;99388.47;6109163;23;20205;-90
2022/01/14 01:06:32;;;;;;;9.80;8.80;;;;;;;18.80;42.99;99309.22;6107867;23;20225;-90
2022/01/14 01:08:59;;;;;;;8.97;8.03;;;;;;;18.62;43.01;99290.13;6108527;23;20240;-91
2022/01/14 01:11:32;;;;;;;9.07;8.17;;;;;;;18.79;43.04;99309.97;6132900;23;20170;-90
2022/01/14 01:14:09;;;;;;;9.17;8.27;;;;;;;18.04;42.88;99173.22;6109969;23;20197;-89
2022/01/14 01:16:35;;;;;;;9.77;8.77;;;;;;;18.27;43.11;99226.59;6112469;23;20196;-90
2022/01/14 01:19:02;;;;;;;9.50;8.57;;;;;;;17.71;43.02;99146.31;6132690;23;20526;-90
2022/01/14 01:21:32;;;;;;;9.13;8.23;;;;;;;17.37;43.07;99062.50;6158282;23;20174;-87
2022/01/14 01:24:02;;;;;;;8.50;7.70;;;;;;;18.09;43.25;99195.66;6156563;23;20213;-89
2022/01/14 01:26:36;;;;;;;9.43;8.43;;;;;;;17.75;43.13;99140.69;6108137;23;20197;-90
2022/01/14 01:29:30;;;;;;;9.37;8.47;;;;;;;18.91;43.01;99344.81;6111220;23;20379;-90
2022/01/14 01:31:53;;;;;;;9.80;8.07;;;;;;;18.76;43.42;99309.75;6142280;23;20840;-89
2022/01/14 01:34:22;;;;;;;8.87;7.97;;;;;;;17.66;43.17;99126.44;6108752;23;20173;-87
2022/01/14 01:36:53;;;;;;;8.80;7.97;;;;;;;17.51;43.39;99088.16;6109344;23;20197;-90
2022/01/14 01:39:26;;;;;;;9.50;8.50;;;;;;;16.67;43.63;98952.53;6110919;23;20189;-89
2022/01/14 02:06:05;;;;;;;8.93;8.07;;;;;;;17.53;43.46;99090.78;6175566;23;20214;-89
2022/01/14 02:08:34;;;;;;;8.80;7.63;;;;;;;18.08;43.56;99177.72;6105243;23;20198;-90
2022/01/14 02:11:01;;;;;;;7.90;7.10;;;;;;;18.23;43.36;99208.47;6105626;23;20230;-89
2022/01/14 02:13:30;;;;;;;8.83;7.93;;;;;;;17.09;43.47;99018.16;6129361;23;20626;-89
2022/01/14 02:23:47;;;;;;;8.60;7.77;;;;;;;18.48;43.70;99262.84;6113304;23;20150;-90
2022/01/14 02:26:16;;;;;;;8.50;7.70;;;;;;;17.65;43.38;99125.56;6106588;23;20566;-89
2022/01/14 02:28:43;;;;;;;9.30;8.37;;;;;;;16.58;43.68;98912.94;6081400;23;20194;-90
2022/01/14 02:31:09;;;;;;;9.00;8.10;;;;;;;17.87;43.56;99143.19;6105145;23;20175;-90
2022/01/14 02:33:36;;;;;;;8.47;7.67;;;;;;;18.36;43.05;99241.59;6154605;23;20178;-90
2022/01/14 02:36:03;;;;;;;8.70;7.87;;;;;;;17.64;43.53;99078.03;6081909;23;20194;-90
2022/01/14 02:38:30;;;;;;;8.33;7.50;;;;;;;18.27;43.45;99196.91;6081366;23;20514;-90
2022/01/14 02:40:56;;;;;;;7.93;7.13;;;;;;;18.24;43.60;99181.44;6081632;23;20179;-90
2022/01/14 02:43:25;;;;;;;8.40;7.60;;;;;;;19.11;43.51;99320.69;6104732;23;20221;-90
2022/01/14 02:45:53;;;;;;;8.67;7.80;;;;;;;18.27;43.22;99196.91;6106171;23;20202;-90
2022/01/14 02:48:22;;;;;;;7.87;7.07;;;;;;;17.97;43.32;99121.03;6104651;23;20190;-90
2022/01/14 02:53:29;;;;;;;8.10;7.30;;;;;;;18.02;43.58;99164.59;6129747;23;20163;-90
2022/01/14 02:55:59;;;;;;;8.43;7.63;;;;;;;18.40;43.54;99197.78;6107369;23;20252;-90
2022/01/14 02:58:27;;;;;;;7.90;7.13;;;;;;;18.88;43.53;99259.66;6082023;23;20174;-90
2022/01/14 03:00:54;;;;;;;7.60;6.90;;;;;;;18.55;43.70;99211.53;6081080;23;20181;-87
2022/01/14 03:03:23;;;;;;;8.30;7.50;;;;;;;18.51;43.74;99205.38;6081260;23;20182;-89
2022/01/14 03:05:51;;;;;;;8.10;7.30;;;;;;;18.89;43.98;99267.41;6076482;23;20199;-90
2022/01/14 03:08:18;;;;;;;8.47;7.67;;;;;;;17.80;43.68;99085.06;6099790;23;20171;-90
2022/01/14 03:10:50;;;;;;;8.80;7.90;;;;;;;18.70;43.54;99249.13;6099690;23;20175;-90
2022/01/14 03:13:18;;;;;;;8.20;7.40;;;;;;;16.49;43.78;98843.78;6100261;23;20170;-87
2022/01/14 03:15:44;;;;;;;8.30;7.50;;;;;;;17.51;43.57;99018.63;6075293;23;20199;-89
2022/01/14 03:18:22;;;;;;;8.47;7.67;;;;;;;17.83;43.76;99078.50;6099124;23;20199;-90
2022/01/14 03:20:52;;;;;;;8.83;7.93;;;;;;;18.43;43.58;99208.16;6078411;23;20159;-90
2022/01/14 03:23:20;;;;;;;8.13;7.37;;;;;;;18.59;43.46;99267.88;6077855;23;20167;-89
2022/01/14 03:25:51;;;;;;;7.73;7.03;;;;;;;17.52;43.71;99045.78;6099877;23;20202;-90
2022/01/14 03:28:29;;;;;;;8.20;7.40;;;;;;;17.50;43.80;99030.44;6102469;23;20441;-89
2022/01/14 03:30:55;;;;;;;7.93;7.23;;;;;;;18.68;43.66;99222.66;6123667;23;20234;-89
2022/01/14 03:33:22;;;;;;;8.37;7.57;;;;;;;18.10;43.77;99153.28;6123799;23;20174;-89
2022/01/14 03:35:49;;;;;;;8.17;7.37;;;;;;;17.81;43.69;99076.66;6099029;23;20214;-90
2022/01/14 03:38:16;;;;;;;8.30;7.50;;;;;;;19.08;43.61;99302.66;6076170;23;20639;-90
2022/01/14 04:18:47;;;;;;;7.47;6.77;;;;;;;18.33;43.67;99119.22;6183155;23;20726;-92
2022/01/14 04:21:14;;;;;;;7.60;6.90;;;;;;;18.53;43.71;99147.78;6133682;23;20170;-89
2022/01/14 04:23:41;;;;;;;8.30;7.50;;;;;;;19.00;43.71;99225.69;6109068;23;20228;-89
2022/01/14 04:26:07;;;;;;;7.97;7.27;;;;;;;14.55;44.25;98420.34;6132870;23;20194;-85
2022/01/14 04:28:35;;;;;;;7.03;6.33;;;;;;;15.52;43.65;98588.47;6108922;23;20178;-85
2022/01/14 04:31:03;;;;;;;7.40;6.70;;;;;;;18.48;43.51;99107.53;6133195;23;20170;-85
2022/01/14 04:33:31;;;;;;;7.70;7.00;;;;;;;17.61;43.48;98949.81;6156814;23;20184;-86
2022/01/14 04:36:01;;;;;;;7.27;6.57;;;;;;;17.74;43.42;98963.44;6132756;23;20185;-85
2022/01/14 04:38:28;;;;;;;7.70;6.93;;;;;;;18.79;43.33;99146.97;6110072;23;20597;-85
2022/01/14 04:40:55;;;;;;;6.87;6.27;;;;;;;18.47;43.57;99090.50;6108640;23;20174;-85
2022/01/14 04:43:21;;;;;;;7.70;7.00;;;;;;;18.15;43.77;99058.66;6109195;23;20240;-84
2022/01/14 04:48:31;;;;;;;7.33;6.63;;;;;;;18.40;43.57;99086.66;6138593;23;20161;-84
2022/01/14 04:50:58;;;;;;;7.23;6.53;;;;;;;19.05;43.50;99196.31;6157453;23;20533;-84
2022/01/14 04:53:25;;;;;;;7.10;6.47;;;;;;;18.46;43.59;99132.91;6157053;23;20173;-85
2022/01/14 04:55:52;;;;;;;7.00;6.30;;;;;;;19.24;43.38;99228.94;6157565;23;20530;-85
2022/01/14 04:58:18;;;;;;;7.30;6.60;;;;;;;17.44;43.60;98909.72;6108220;23;20193;-84
2022/01/14 05:00:45;;;;;;;7.90;7.20;;;;;;;18.06;43.61;99016.50;6108976;23;20514;-85
2022/01/14 05:03:12;;;;;;;7.27;6.57;;;;;;;18.83;43.58;99159.13;6157051;23;20245;-84
2022/01/14 05:05:42;;;;;;;7.80;7.00;;;;;;;17.35;43.35;98901.44;6132906;23;20633;-85
2022/01/14 05:08:19;;;;;;;7.40;6.70;;;;;;;18.56;43.78;99103.84;6157406;23;20204;-85
2022/01/14 05:13:15;;;;;;;7.53;6.83;;;;;;;17.89;43.56;98983.97;6158202;23;20512;-84
2022/01/14 05:15:42;;;;;;;7.63;6.93;;;;;;;17.68;43.82;98952.88;6158040;23;20216;-85
2022/01/14 05:18:08;;;;;;;6.70;6.10;;;;;;;18.05;43.48;99022.34;6110373;23;20198;-84
2022/01/14 05:20:35;;;;;;;6.33;5.73;;;;;;;18.91;43.51;99174.13;6134559;23;20228;-84
2022/01/14 05:23:02;;;;;;;6.93;6.23;;;;;;;18.86;43.81;99166.97;6134681;23;20235;-84
2022/01/14 05:25:29;;;;;;;7.33;6.63;;;;;;;18.57;43.62;99131.94;6134221;23;20204;-84
2022/01/14 05:27:55;;;;;;;7.23;6.57;;;;;;;18.47;43.40;99109.19;6104562;23;20206;-84
2022/01/14 05:30:22;;;;;;;7.47;6.77;;;;;;;18.37;43.70;99083.00;6129745;23;20688;-84
2022/01/14 05:32:50;;;;;;;7.20;6.50;;;;;;;18.61;43.41;99133.03;6178183;23;20166;-84
2022/01/14 05:35:19;;;;;;;6.97;6.37;;;;;;;17.07;43.41;98855.50;6129678;23;20656;-85
2022/01/14 05:37:45;;;;;;;7.33;6.63;;;;;;;18.48;43.66;99110.09;6104340;23;20205;-84
2022/01/14 05:40:13;;;;;;;6.97;6.27;;;;;;;19.12;43.66;99226.50;6105676;23;20190;-84
2022/01/14 05:42:40;;;;;;;6.90;6.30;;;;;;;18.50;43.75;99128.91;6153041;23;20213;-84
2022/01/14 05:45:07;;;;;;;6.47;5.87;;;;;;;19.15;43.82;99241.09;6129120;23;20511;-85
2022/01/14 05:47:34;;;;;;;6.60;6.00;;;;;;;19.15;43.78;99249.63;6153285;23;20306;-85
2022/01/14 05:50:02;;;;;;;6.80;6.20;;;;;;;18.32;43.81;99107.28;6128778;23;20294;-85
2022/01/14 05:52:29;;;;;;;6.50;5.90;;;;;;;18.64;44.07;99163.78;6104863;23;20198;-84
2022/01/14 05:54:57;;;;;;;6.30;5.70;;;;;;;18.86;43.66;99198.41;6128824;23;20745;-85
2022/01/14 05:57:23;;;;;;;6.50;5.90;;;;;;;18.89;43.73;99203.69;6128877;23;20198;-84
2022/01/14 05:59:50;;;;;;;7.07;6.43;;;;;;;17.96;43.58;99042.97;6155193;23;20260;-84
2022/01/14 06:02:17;;;;;;;6.90;6.20;;;;;;;17.36;43.84;98939.66;6105692;23;20626;-84
2022/01/14 06:04:45;;;;;;;6.70;6.10;;;;;;;17.33;43.57;98929.28;6129497;23;20645;-85
2022/01/14 06:07:11;;;;;;;6.83;6.23;;;;;;;18.92;43.69;99218.34;6153295;23;20198;-84
2022/01/14 06:09:38;;;;;;;6.07;5.53;;;;;;;17.35;43.64;98968.34;6130477;23;20669;-84
2022/01/14 06:12:05;;;;;;;6.93;6.33;;;;;;;18.77;43.71;99192.69;6154839;23;20182;-85
2022/01/14 06:14:32;;;;;;;7.03;6.33;;;;;;;18.13;43.71;99079.72;6130223;23;20182;-84
2022/01/14 06:16:59;;;;;;;6.73;6.07;;;;;;;18.32;43.71;99114.91;6153673;23;20676;-85
2022/01/14 06:19:27;;;;;;;7.00;6.30;;;;;;;17.52;43.83;98977.16;6129977;23;20560;-83
2022/01/14 06:21:54;;;;;;;7.00;6.40;;;;;;;18.69;43.75;99177.72;6153391;23;20225;-83
2022/01/14 06:24:20;;;;;;;6.90;6.20;;;;;;;18.69;43.65;99175.16;6129711;23;20202;-84
2022/01/14 06:26:47;;;;;;;6.97;6.30;;;;;;;18.57;43.70;99153.97;6103949;23;20210;-84
2022/01/14 06:29:17;;;;;;;6.83;6.20;;;;;;;17.57;43.33;98991.06;6128101;23;20589;-84
2022/01/14 06:31:44;;;;;;;7.13;6.47;;;;;;;17.11;43.59;98895.56;6130322;23;20170;-84
2022/01/14 06:34:12;;;;;;;7.00;6.40;;;;;;;19.14;43.33;99252.97;6129308;23;20178;-83
2022/01/14 06:36:38;;;;;;;7.43;6.73;;;;;;;18.36;43.49;99119.41;6155901;23;20198;-83
2022/01/14 06:39:05;;;;;;;7.43;6.73;;;;;;;18.09;43.36;99093.88;6106171;23;20186;-83
2022/01/14 06:41:32;;;;;;;7.20;6.50;;;;;;;18.77;43.65;99184.19;6152951;23;20179;-84
2022/01/14 06:43:59;;;;;;;6.50;5.90;;;;;;;18.85;43.61;99195.75;6152836;23;20642;-84
2022/01/14 06:46:26;;;;;;;6.40;5.90;;;;;;;18.53;43.54;99142.69;6152883;23;20210;-84
2022/01/14 06:48:52;;;;;;;7.20;6.50;;;;;;;18.39;43.55;99109.47;6105135;23;20229;-84
2022/01/14 06:51:19;;;;;;;7.60;6.90;;;;;;;18.07;43.65;99056.41;6129583;23;20225;-84
2022/01/14 06:53:46;;;;;;;6.80;6.20;;;;;;;18.61;43.77;99141.56;6129241;23;20181;-84
2022/01/14 06:56:14;;;;;;;6.93;6.23;;;;;;;18.90;43.70;99191.88;6154563;23;20174;-83
2022/01/14 06:58:41;;;;;;;6.83;6.23;;;;;;;18.48;43.52;99127.91;6156297;23;20179;-83
2022/01/14 07:01:07;;;;;;;6.27;5.67;;;;;;;18.34;43.76;99092.97;6104906;23;20233;-83
2022/01/14 07:03:34;;;;;;;7.10;6.40;;;;;;;18.44;43.92;99119.19;6129764;23;20178;-84
2022/01/14 07:06:01;;;;;;;7.13;6.43;;;;;;;17.56;43.60;98948.66;6129435;23;20178;-85
2022/01/14 07:08:28;;;;;;;6.57;5.97;;;;;;;17.93;43.86;99026.59;6105154;23;20230;-87
2022/01/14 07:10:54;;;;;;;7.03;6.33;;;;;;;17.22;43.75;98897.19;6152692;23;20281;-87
2022/01/14 07:13:21;;;;;;;6.87;6.27;;;;;;;17.42;43.88;98932.44;6128926;23;20634;-84
2022/01/14 07:15:48;;;;;;;6.97;6.23;;;;;;;18.65;44.07;99168.97;6153644;23;20240;-85
2022/01/14 07:18:16;;;;;;;7.23;6.53;;;;;;;16.56;43.81;98779.97;6105143;23;20647;-84
2022/01/14 07:20:42;;;;;;;6.90;6.23;;;;;;;18.66;43.56;99145.28;6129432;23;20634;-84
2022/01/14 07:23:09;;;;;;;7.13;6.43;;;;;;;18.85;43.80;99186.47;6129550;23;20174;-83
2022/01/14 07:25:38;;;;;;;6.57;5.97;;;;;;;18.73;43.77;99161.84;6153615;23;20207;-84
2022/01/14 07:28:05;;;;;;;6.70;6.10;;;;;;;17.63;43.65;98977.13;6178192;23;20269;-82
2022/01/14 07:30:31;;;;;;;6.97;6.37;;;;;;;18.41;43.64;99116.44;6128338;23;20209;-82
2022/01/14 07:32:59;;;;;;;6.13;5.60;;;;;;;18.15;42.99;99070.53;6127607;23;20193;-85
2022/01/14 07:35:25;;;;;;;6.73;6.13;;;;;;;18.67;43.51;99149.59;6151726;23;20220;-83
2022/01/14 07:37:52;;;;;;;8.07;7.27;;;;;;;18.64;43.37;99161.22;6127724;23;20221;-83
2022/01/14 07:40:19;;;;;;;11.40;10.20;;;;;;;18.31;42.15;99106.38;6127658;23;20179;-83
2022/01/14 07:42:45;;;;;;;16.63;14.73;;;;;;;18.66;40.52;99175.84;6128035;23;20178;-83
2022/01/14 07:45:12;;;;;;;19.53;16.93;;;;;;;17.88;38.51;99028.84;6103302;23;20178;-83
2022/01/14 07:47:38;;;;;;;21.40;18.30;;;;;;;18.50;37.68;99139.94;6128132;23;20234;-82
2022/01/14 07:50:06;;;;;;;24.43;18.13;;;;;;;18.42;36.74;99130.03;6127522;23;20540;-82
2022/01/14 07:52:32;;;;;;;22.63;18.93;;;;;;;18.68;36.33;99173.41;6104157;23;20174;-83
2022/01/14 07:54:59;;;;;;;23.77;20.37;;;;;;;18.31;36.51;99116.56;6103103;23;20178;-83
2022/01/14 07:57:25;;;;;;;24.23;19.73;;;;;;;18.24;35.25;99109.31;6103410;23;20199;-84
2022/01/14 07:59:52;;;;;;;24.57;21.30;;;;;;;18.63;34.92;99179.84;6127521;23;20213;-83
2022/01/14 08:02:20;;;;;;;23.90;20.23;;;;;;;18.60;34.79;99182.19;6152084;23;20182;-84
2022/01/14 08:04:48;;;;;;;25.10;21.40;;;;;;;18.94;34.61;99250.75;6151686;23;20178;-83
2022/01/14 08:07:17;;;;;;;24.80;20.67;;;;;;;17.85;34.60;99054.06;6151589;23;20520;-83
2022/01/14 08:09:44;;;;;;;24.53;20.27;;;;;;;18.50;34.05;99167.94;6128425;23;20221;-83
2022/01/14 08:12:12;;;;;;;25.87;20.90;;;;;;;18.32;33.86;99140.38;6128105;23;20175;-84
2022/01/14 08:14:39;;;;;;;24.53;20.83;;;;;;;18.93;33.68;99254.09;6103749;23;20244;-83
2022/01/14 08:17:06;;;;;;;25.17;21.37;;;;;;;18.48;33.88;99173.72;6104101;23;20234;-84
2022/01/14 08:19:36;;;;;;;23.80;20.77;;;;;;;18.70;34.29;99227.84;6103198;23;20178;-84
2022/01/14 08:22:04;;;;;;;24.00;20.43;;;;;;;18.18;34.82;99125.03;6128425;23;20574;-83
2022/01/14 08:24:32;;;;;;;22.93;19.10;;;;;;;18.48;35.58;99192.44;6127651;23;20178;-82
2022/01/14 08:26:59;;;;;;;22.43;19.63;;;;;;;18.41;36.32;99174.09;6103333;23;20202;-82
2022/01/14 08:29:28;;;;;;;22.30;18.97;;;;;;;18.19;36.89;99143.75;6103078;23;20178;-83
2022/01/14 08:31:55;;;;;;;23.47;19.27;;;;;;;18.24;37.57;99150.03;6121320;23;20205;-83
2022/01/14 08:34:23;;;;;;;21.47;18.80;;;;;;;18.34;37.48;99182.94;6103189;23;20202;-83
2022/01/14 08:36:49;;;;;;;19.57;17.47;;;;;;;18.08;37.65;99104.84;6102747;23;20801;-83
2022/01/14 08:39:16;;;;;;;20.03;17.57;;;;;;;18.06;38.39;99106.41;6103421;23;20206;-83
2022/01/14 08:41:42;;;;;;;19.47;16.87;;;;;;;18.31;38.17;99151.31;6102908;23;20173;-86
2022/01/14 08:44:09;;;;;;;19.50;16.97;;;;;;;18.27;38.71;99144.25;6126514;23;20281;-84
2022/01/14 08:46:49;;;;;;;19.63;16.47;;;;;;;18.39;38.98;99161.28;6106950;23;20754;-85
2022/01/14 08:49:15;;;;;;;17.47;15.47;;;;;;;18.53;38.92;99185.97;6150941;23;20174;-86
2022/01/14 08:51:42;;;;;;;17.77;15.87;;;;;;;18.88;39.42;99239.28;6102120;23;20277;-86
2022/01/14 08:54:08;;;;;;;17.77;15.83;;;;;;;18.82;39.46;99227.00;6151066;23;20202;-87
2022/01/14 08:56:35;;;;;;;16.57;14.77;;;;;;;18.19;39.47;99115.75;6151185;23;20233;-86
2022/01/14 08:59:02;;;;;;;17.90;15.27;;;;;;;17.94;39.70;99066.50;6101962;23;20186;-82
2022/01/14 09:01:29;;;;;;;16.43;14.70;;;;;;;18.90;40.02;99235.16;6102334;23;20518;-85
2022/01/14 09:03:55;;;;;;;15.23;13.50;;;;;;;18.34;39.74;99126.94;6126114;23;20256;-86
2022/01/14 09:06:22;;;;;;;16.37;14.23;;;;;;;18.17;40.16;99095.28;6151033;23;20677;-85
2022/01/14 09:08:49;;;;;;;15.93;14.20;;;;;;;17.41;39.90;98965.38;6126781;23;20206;-84
2022/01/14 09:11:16;;;;;;;15.67;13.80;;;;;;;17.71;39.82;99024.28;6150853;23;20273;-83
2022/01/14 09:13:42;;;;;;;15.37;13.67;;;;;;;18.03;40.42;99064.63;6126631;23;20214;-83
2022/01/14 09:16:09;;;;;;;15.30;13.70;;;;;;;17.43;40.07;98963.81;6102575;23;20175;-85
2022/01/14 09:18:35;;;;;;;14.70;13.20;;;;;;;18.87;40.72;99214.59;6126654;23;20174;-80
2022/01/14 09:21:02;;;;;;;14.83;13.07;;;;;;;18.79;40.33;99203.00;6150835;23;20206;-81
2022/01/14 09:23:29;;;;;;;14.63;13.03;;;;;;;18.47;40.43;99147.38;6149901;23;20213;-84
2022/01/14 09:25:56;;;;;;;14.67;13.00;;;;;;;18.32;40.59;99120.88;6102534;23;20674;-84
2022/01/14 09:28:22;;;;;;;14.07;12.57;;;;;;;18.48;40.30;99150.81;6107427;23;20173;-83
2022/01/14 09:30:49;;;;;;;13.30;11.90;;;;;;;18.19;40.87;99095.38;6106502;23;20221;-84
2022/01/14 09:33:17;;;;;;;13.27;11.87;;;;;;;17.96;40.79;99070.06;6107314;23;20240;-83
2022/01/14 09:35:45;;;;;;;13.23;11.80;;;;;;;18.71;40.66;99181.25;6156382;23;20185;-83
2022/01/14 09:38:11;;;;;;;13.03;11.50;;;;;;;18.96;40.40;99227.94;6156689;23;20217;-83
2022/01/14 09:40:40;;;;;;;18.03;15.73;;;;;;;18.88;38.02;99213.78;6156171;23;20184;-83
2022/01/14 09:43:07;;;;;;;18.77;15.87;;;;;;;18.41;38.00;99128.28;6130967;23;20178;-82
2022/01/14 09:45:57;;;;;;;17.67;15.67;;;;;;;18.70;38.46;99172.72;6137525;23;20209;-90
2022/01/14 09:48:24;;;;;;;16.87;15.03;;;;;;;15.23;39.17;98613.38;6211378;23;20146;-89
2022/01/14 09:50:51;;;;;;;16.17;14.43;;;;;;;14.24;39.77;98444.25;6135407;23;20190;-88
2022/01/14 09:53:17;;;;;;;15.27;13.67;;;;;;;17.34;39.80;98958.97;6183999;23;20178;-88
2022/01/14 09:55:44;;;;;;;16.23;14.57;;;;;;;16.74;40.40;98839.63;6183592;23;20327;-89
2022/01/14 09:58:11;;;;;;;14.17;12.77;;;;;;;12.86;40.29;98215.09;6159283;23;20174;-89
2022/01/14 10:00:38;;;;;;;14.80;12.60;;;;;;;13.54;40.11;98284.13;6187082;23;20166;-88
2022/01/14 10:03:22;;;;;;;13.70;12.20;;;;;;;15.56;40.41;98675.69;6160244;23;20166;-89
2022/01/14 10:05:52;;;;;;;14.40;12.70;;;;;;;15.30;40.48;98700.78;6186366;23;20200;-88
2022/01/14 10:08:26;;;;;;;12.70;11.40;;;;;;;17.97;40.56;99067.63;6138152;23;20237;-89
2022/01/14 10:10:59;;;;;;;14.33;12.83;;;;;;;14.75;40.91;98563.44;6188467;23;20181;-89
2022/01/14 10:13:28;;;;;;;13.43;12.03;;;;;;;12.81;40.70;98176.03;6141053;23;20170;-89
2022/01/14 10:16:08;;;;;;;13.10;11.80;;;;;;;14.72;40.60;98507.53;6141237;23;20189;-90
2022/01/14 10:18:35;;;;;;;19.30;17.00;;;;;;;12.92;37.56;98235.72;6164856;23;20154;-90
2022/01/14 10:21:15;;;;;;;21.40;18.93;;;;;;;19.01;36.98;99211.28;6164301;23;20166;-89
2022/01/14 10:23:49;;;;;;;20.00;16.73;;;;;;;19.03;37.49;99210.59;6188810;23;20169;-89
2022/01/14 10:26:16;;;;;;;20.10;17.93;;;;;;;13.34;38.08;98307.03;6189098;23;20197;-90
2022/01/14 10:28:45;;;;;;;19.37;17.17;;;;;;;12.91;38.51;98183.53;6129546;23;20203;-87
2022/01/14 10:31:12;;;;;;;17.90;16.07;;;;;;;12.51;38.83;98099.06;6078177;23;20191;-87
2022/01/14 10:33:38;;;;;;;17.70;14.87;;;;;;;18.90;38.67;99164.72;6098931;23;20226;-79
2022/01/14 10:36:05;;;;;;;16.83;15.13;;;;;;;18.37;38.67;99073.75;6123778;23;20575;-81
2022/01/14 10:38:40;;;;;;;17.10;15.33;;;;;;;18.03;39.21;99023.91;6117318;23;20199;-79
2022/01/14 10:41:08;;;;;;;18.77;15.37;;;;;;;18.38;39.41;99065.31;6045612;23;20175;-81
2022/01/14 10:43:36;;;;;;;16.03;14.43;;;;;;;18.62;39.36;99102.56;6069664;23;20180;-80
2022/01/14 10:46:10;;;;;;;15.17;13.57;;;;;;;18.41;39.50;99126.59;6091358;23;20643;-87
2022/01/14 10:48:40;;;;;;;16.57;14.40;;;;;;;18.81;39.57;99127.56;6072407;23;20201;-86
2022/01/14 10:51:14;;;;;;;15.33;13.73;;;;;;;18.46;39.83;99076.88;6069238;23;20882;-90
2022/01/14 10:53:51;;;;;;;15.13;13.53;;;;;;;17.89;39.73;98964.47;6070552;23;20179;-86
2022/01/14 10:56:19;;;;;;;14.07;12.67;;;;;;;18.14;39.89;98993.31;6071221;23;20179;-87
2022/01/14 10:58:47;;;;;;;14.43;12.90;;;;;;;17.27;39.86;98826.34;6047564;23;20625;-86
2022/01/14 11:01:21;;;;;;;14.00;12.50;;;;;;;16.95;40.03;98770.88;6071475;23;20176;-88
2022/01/14 11:03:56;;;;;;;13.97;12.47;;;;;;;16.12;40.21;98619.66;6072072;23;20176;-89
2022/01/14 11:06:33;;;;;;;13.87;12.37;;;;;;;19.17;40.15;99143.56;6073405;23;20727;-80
2022/01/14 11:09:03;;;;;;;14.73;11.77;;;;;;;19.19;40.13;99151.31;6069657;23;20246;-80
2022/01/14 11:11:37;;;;;;;13.13;11.80;;;;;;;19.19;40.03;99136.03;6093807;23;20325;-82
2022/01/14 11:14:04;;;;;;;14.40;12.40;;;;;;;18.32;40.10;98978.34;6093498;23;20663;-81
2022/01/14 11:16:31;;;;;;;13.80;12.40;;;;;;;18.20;40.28;98957.19;6070264;23;20179;-80
2022/01/14 11:19:00;;;;;;;12.87;11.60;;;;;;;18.10;40.38;98935.38;6093754;23;20200;-84
2022/01/14 11:24:14;;;;;;;12.10;10.90;;;;;;;16.79;40.23;98702.09;6093614;23;20206;-81
2022/01/14 11:26:40;;;;;;;14.57;13.00;;;;;;;18.44;40.18;98991.03;6046297;23;20761;-80
2022/01/14 11:29:12;;;;;;;14.10;12.50;;;;;;;16.72;39.86;98735.44;6045267;23;20230;-82
2022/01/14 11:31:39;;;;;;;14.43;12.97;;;;;;;17.11;40.28;98765.16;6068638;23;20219;-84
2022/01/14 11:34:07;;;;;;;15.43;13.00;;;;;;;17.23;40.16;98814.22;6092690;23;20238;-80
2022/01/14 11:37:04;;;;;;;12.60;11.30;;;;;;;19.22;40.20;99119.25;6045337;23;20212;-80
2022/01/14 11:39:34;;;;;;;14.73;12.23;;;;;;;18.17;40.29;98927.34;6074787;23;20189;-81
2022/01/14 11:42:03;;;;;;;12.13;10.93;;;;;;;19.21;39.93;99112.41;6092423;23;20666;-80
2022/01/14 11:45:06;;;;;;;12.20;10.93;;;;;;;19.21;40.39;99101.31;6091990;23;20530;-80
2022/01/14 11:47:41;;;;;;;13.30;11.97;;;;;;;19.21;40.52;99099.66;6093571;23;20257;-80
2022/01/14 11:50:23;;;;;;;13.23;11.70;;;;;;;19.20;40.39;99097.00;6092672;23;20164;-80
2022/01/14 11:52:49;;;;;;;13.43;12.13;;;;;;;18.56;40.30;98982.50;6095185;23;20211;-79
2022/01/14 11:55:35;;;;;;;14.00;12.60;;;;;;;19.19;40.11;99092.69;6069224;23;20207;-81
2022/01/14 11:58:06;;;;;;;14.67;12.37;;;;;;;18.68;40.28;99000.25;6093740;23;20591;-80
2022/01/14 12:00:38;;;;;;;12.10;10.80;;;;;;;18.54;40.49;98989.19;6069972;23;20204;-80
2022/01/14 12:03:09;;;;;;;12.27;11.03;;;;;;;19.17;40.66;99089.16;6093561;23;20172;-80
2022/01/14 12:05:55;;;;;;;13.60;11.97;;;;;;;16.56;40.45;98626.06;6093441;23;20171;-80
2022/01/14 12:08:37;;;;;;;11.67;10.47;;;;;;;17.90;40.53;98867.06;6073087;23;20678;-81
2022/01/14 12:11:06;;;;;;;10.93;9.93;;;;;;;19.15;40.60;99090.72;6069519;23;20242;-79
2022/01/14 12:13:50;;;;;;;11.70;10.47;;;;;;;18.13;40.71;98907.59;6094155;23;20271;-82
2022/01/14 12:16:19;;;;;;;11.47;10.30;;;;;;;19.13;40.94;99082.13;6094326;23;20191;-81
2022/01/14 12:18:59;;;;;;;11.23;10.10;;;;;;;19.13;40.89;99084.66;6095096;23;20675;-80
2022/01/14 12:21:38;;;;;;;11.57;10.43;;;;;;;19.13;41.00;99084.66;6092834;23;20180;-82
2022/01/14 12:24:19;;;;;;;11.67;10.23;;;;;;;19.11;41.20;99076.94;6092897;23;20659;-80
2022/01/14 12:26:52;;;;;;;11.17;10.07;;;;;;;19.11;41.15;99070.94;6093695;23;20179;-81
2022/01/14 12:29:43;;;;;;;11.20;10.00;;;;;;;19.11;40.98;99058.19;6094961;23;20183;-80
2022/01/14 12:32:19;;;;;;;10.70;9.60;;;;;;;19.10;41.23;99066.63;6069282;23;20214;-82
2022/01/14 12:34:54;;;;;;;10.57;9.47;;;;;;;19.10;41.27;99069.19;6069113;23;20175;-88
2022/01/14 12:37:43;;;;;;;10.67;9.60;;;;;;;14.87;41.38;98312.13;6069284;23;20226;-86
2022/01/14 12:40:14;;;;;;;11.17;10.00;;;;;;;18.45;40.94;98939.31;6052332;23;20501;-88
2022/01/14 12:42:48;;;;;;;11.00;9.90;;;;;;;18.27;41.40;98924.59;6070830;23;20176;-89
2022/01/14 12:45:35;;;;;;;10.47;9.37;;;;;;;19.08;41.19;99045.25;6071234;23;20160;-87
2022/01/14 12:48:20;;;;;;;10.90;9.43;;;;;;;15.44;41.28;98435.06;6047002;23;20192;-86
2022/01/14 12:50:47;;;;;;;10.33;9.27;;;;;;;19.07;41.40;99044.38;6049611;23;20184;-85
2022/01/14 12:53:19;;;;;;;9.93;8.93;;;;;;;17.20;41.53;98709.88;6022385;23;20176;-89
2022/01/14 12:55:46;;;;;;;9.43;8.53;;;;;;;19.08;41.44;99029.97;6046103;23;20163;-85
2022/01/14 12:58:13;;;;;;;9.83;8.83;;;;;;;16.31;41.51;98542.34;6071360;23;20223;-87
2022/01/14 13:00:42;;;;;;;9.53;8.60;;;;;;;18.75;41.43;99008.38;6069404;23;20186;-89
2022/01/14 13:03:11;;;;;;;9.63;8.63;;;;;;;16.49;41.54;98563.00;6047327;23;20172;-88
2022/01/14 13:05:38;;;;;;;10.10;9.00;;;;;;;15.57;41.57;98407.25;6046479;23;20182;-86
2022/01/14 13:08:04;;;;;;;9.37;8.47;;;;;;;16.94;41.49;98647.22;6045568;23;20195;-88
2022/01/14 13:10:32;;;;;;;9.30;8.40;;;;;;;19.12;41.63;99016.63;6046071;23;20333;-87
2022/01/14 13:13:02;;;;;;;9.10;8.30;;;;;;;16.02;41.68;98515.88;6046405;23;20220;-86
2022/01/14 13:15:28;;;;;;;8.87;8.00;;;;;;;13.11;41.75;97958.78;6070348;23;20215;-87
2022/01/14 13:18:01;;;;;;;9.17;8.27;;;;;;;18.29;41.72;98871.25;6070311;23;20690;-88
2022/01/14 13:20:28;;;;;;;8.83;7.90;;;;;;;18.29;41.67;98872.94;6047977;23;20694;-88
2022/01/14 13:22:55;;;;;;;9.10;8.23;;;;;;;17.42;41.46;98715.53;6046568;23;20199;-92
2022/01/14 13:25:26;;;;;;;10.40;8.27;;;;;;;16.45;41.65;98563.59;6070263;23;20754;-88
2022/01/14 13:27:57;;;;;;;8.77;7.87;;;;;;;17.30;41.46;98676.66;6058861;23;20202;-87
2022/01/14 13:30:28;;;;;;;9.57;8.67;;;;;;;18.92;41.49;98925.34;6076505;23;20179;-90
2022/01/14 13:32:57;;;;;;;9.07;8.17;;;;;;;17.90;41.48;98755.16;6077784;23;20665;-87
2022/01/14 13:35:26;;;;;;;9.17;8.20;;;;;;;16.65;41.33;98545.47;6075614;23;20174;-86
2022/01/14 13:37:55;;;;;;;8.47;7.60;;;;;;;17.87;41.22;98729.53;6077460;23;20203;-89
2022/01/14 13:40:32;;;;;;;7.90;7.20;;;;;;;15.79;41.70;98445.03;6071696;23;20230;-88
2022/01/14 13:43:13;;;;;;;9.13;8.23;;;;;;;16.90;41.69;98536.06;6101499;23;20591;-88